Time;durP1;ratioP1;P1;durP2;ratioP2;P2;SDS_P1;SDS_P2;PMS_P1;PMS_P2;Temp;Humidity;BMP_temperature;BMP_pressure;BME280_temperature;BME280_humidity;BME280_pressure;Samples;Min_cycle;Max_cycle;Signal;HPM_P1;HPM_P2
2021/08/15 00:01:19;;;;;;;10.05;2.85;;;15.70;99.90;;;;;;4953308;28;20063;-69
2021/08/15 00:03:48;;;;;;;8.98;3.22;;;15.70;99.90;;;;;;4954495;28;20051;-70
2021/08/15 00:06:15;;;;;;;10.88;3.30;;;15.80;99.90;;;;;;4954897;28;20410;-69
2021/08/15 00:08:44;;;;;;;19.70;4.30;;;15.80;99.90;;;;;;4954815;28;20427;-69
2021/08/15 00:11:11;;;;;;;6.97;3.45;;;15.80;99.90;;;;;;4954928;28;20122;-67
2021/08/15 00:13:38;;;;;;;6.53;2.90;;;15.80;99.90;;;;;;4952799;28;20126;-67
2021/08/15 00:16:05;;;;;;;10.18;3.35;;;15.70;99.90;;;;;;4954609;28;20050;-66
2021/08/15 00:18:32;;;;;;;12.18;3.65;;;15.70;99.90;;;;;;4954823;28;20110;-66
2021/08/15 00:20:58;;;;;;;8.45;2.55;;;15.70;99.90;;;;;;4954772;28;20047;-67
2021/08/15 00:23:25;;;;;;;11.88;3.08;;;15.70;99.90;;;;;;4952924;28;20051;-67
2021/08/15 00:25:52;;;;;;;11.65;2.65;;;15.70;99.90;;;;;;4954119;28;20051;-68
2021/08/15 00:28:19;;;;;;;8.85;3.72;;;15.70;99.90;;;;;;4954516;28;20190;-68
2021/08/15 00:30:46;;;;;;;10.38;2.53;;;15.70;99.90;;;;;;4954246;28;20047;-66
2021/08/15 00:33:13;;;;;;;6.47;2.65;;;15.70;99.90;;;;;;4954353;28;20074;-67
2021/08/15 00:35:40;;;;;;;10.35;3.50;;;15.70;99.90;;;;;;4952209;28;20374;-66
2021/08/15 00:38:07;;;;;;;9.82;2.60;;;15.70;99.90;;;;;;4954103;28;20071;-68
2021/08/15 00:40:34;;;;;;;6.75;2.72;;;15.70;99.90;;;;;;4954258;28;20048;-66
2021/08/15 00:43:01;;;;;;;11.15;3.50;;;15.70;99.90;;;;;;4954450;28;20078;-65
2021/08/15 00:45:28;;;;;;;7.00;2.80;;;15.70;99.90;;;;;;4952488;28;20067;-68
2021/08/15 00:47:55;;;;;;;9.52;3.13;;;15.70;99.90;;;;;;4954022;28;20405;-69
2021/08/15 00:50:22;;;;;;;6.60;2.40;;;15.70;99.90;;;;;;4953807;28;20096;-70
2021/08/15 00:52:49;;;;;;;10.95;3.83;;;15.70;99.90;;;;;;4953837;28;20059;-69
2021/08/15 00:55:16;;;;;;;16.25;3.63;;;15.70;99.90;;;;;;4952514;28;20047;-67
2021/08/15 00:57:44;;;;;;;9.75;3.65;;;15.70;99.90;;;;;;4953886;28;20075;-68
2021/08/15 01:00:11;;;;;;;9.77;2.70;;;15.70;99.90;;;;;;4954047;28;20121;-70
2021/08/15 01:02:48;;;;;;;6.50;3.35;;;15.70;99.90;;;;;;4978616;23;20069;-63
2021/08/15 01:05:16;;;;;;;5.10;2.88;;;15.70;99.90;;;;;;4972369;28;20054;-63
2021/08/15 01:07:44;;;;;;;10.18;3.38;;;15.70;99.90;;;;;;4973215;28;20077;-62
2021/08/15 01:10:12;;;;;;;5.60;2.33;;;15.70;99.90;;;;;;4973904;28;20413;-62
2021/08/15 01:12:39;;;;;;;10.73;3.90;;;15.70;99.90;;;;;;4973734;28;20121;-62
2021/08/15 01:15:08;;;;;;;13.77;3.53;;;15.70;99.90;;;;;;4973643;28;20188;-65
2021/08/15 01:17:35;;;;;;;16.83;3.45;;;15.70;99.90;;;;;;4971998;28;20428;-71
2021/08/15 01:20:03;;;;;;;11.60;3.95;;;15.80;99.90;;;;;;4973276;28;20074;-68
2021/08/15 01:22:34;;;;;;;11.70;3.50;;;15.70;99.90;;;;;;4973356;28;20055;-65
2021/08/15 01:25:05;;;;;;;7.25;2.40;;;15.70;99.90;;;;;;4973521;28;20051;-65
2021/08/15 01:27:37;;;;;;;8.02;2.67;;;15.70;99.90;;;;;;4971755;28;20047;-63
2021/08/15 01:30:15;;;;;;;8.63;4.00;;;15.70;99.90;;;;;;4973159;28;20043;-66
2021/08/15 01:32:44;;;;;;;9.70;2.85;;;15.70;99.90;;;;;;4973327;28;20089;-69
2021/08/15 01:35:11;;;;;;;8.93;2.22;;;15.70;99.90;;;;;;4973192;28;20070;-72
2021/08/15 01:37:38;;;;;;;11.20;3.60;;;15.70;99.90;;;;;;4970563;28;20098;-65
2021/08/15 01:40:07;;;;;;;10.57;4.85;;;15.70;99.90;;;;;;4973105;28;20070;-68
2021/08/15 01:42:34;;;;;;;7.22;2.88;;;15.70;99.90;;;;;;4972990;28;20573;-65
2021/08/15 01:45:06;;;;;;;8.15;2.60;;;15.70;99.90;;;;;;4973061;28;20047;-67
2021/08/15 01:47:33;;;;;;;8.00;3.08;;;15.60;99.90;;;;;;4971432;28;20058;-67
2021/08/15 01:50:00;;;;;;;10.63;3.90;;;15.60;99.90;;;;;;4973083;28;20073;-64
2021/08/15 01:52:27;;;;;;;8.57;2.60;;;15.70;99.90;;;;;;4972992;28;20331;-70
2021/08/15 01:54:54;;;;;;;8.00;3.00;;;15.60;99.90;;;;;;4972613;28;20493;-67
2021/08/15 01:57:21;;;;;;;7.70;2.60;;;15.60;99.90;;;;;;4971276;28;20054;-72
2021/08/15 01:59:48;;;;;;;7.85;2.65;;;15.60;99.90;;;;;;4972906;28;20133;-67
2021/08/15 02:02:15;;;;;;;6.25;2.75;;;15.60;99.90;;;;;;4972283;28;20119;-66
2021/08/15 02:04:42;;;;;;;6.78;3.00;;;15.60;99.90;;;;;;4972699;28;20100;-67
2021/08/15 02:07:09;;;;;;;6.60;3.38;;;15.60;99.90;;;;;;4972518;28;20058;-65
2021/08/15 02:09:36;;;;;;;8.52;3.42;;;15.60;99.90;;;;;;4970463;28;20046;-67
2021/08/15 02:12:03;;;;;;;11.25;2.90;;;15.60;99.90;;;;;;4972271;28;20105;-66
2021/08/15 02:14:31;;;;;;;9.15;3.38;;;15.60;99.90;;;;;;4972373;28;20485;-65
2021/08/15 02:16:58;;;;;;;11.50;3.05;;;15.60;99.90;;;;;;4972293;28;20129;-67
2021/08/15 02:19:25;;;;;;;11.32;2.63;;;15.60;99.90;;;;;;4971044;28;20141;-67
2021/08/15 02:21:52;;;;;;;7.63;3.45;;;15.60;99.90;;;;;;4972405;28;20066;-65
2021/08/15 02:24:19;;;;;;;13.73;3.50;;;15.60;99.90;;;;;;4972558;28;20390;-66
2021/08/15 02:26:46;;;;;;;4.47;1.95;;;15.60;99.90;;;;;;4972218;28;20051;-66
2021/08/15 02:29:12;;;;;;;11.60;4.32;;;15.60;99.90;;;;;;4972503;28;20549;-67
2021/08/15 02:31:39;;;;;;;6.43;2.60;;;15.60;99.90;;;;;;4970394;28;20042;-64
2021/08/15 02:34:06;;;;;;;6.85;3.20;;;15.50;99.90;;;;;;4972430;28;20046;-70
2021/08/15 02:36:33;;;;;;;10.32;2.72;;;15.50;99.90;;;;;;4972055;28;20066;-71
2021/08/15 02:39:00;;;;;;;13.38;2.47;;;15.50;99.90;;;;;;4972037;28;20077;-70
2021/08/15 02:41:27;;;;;;;12.32;2.75;;;15.50;99.90;;;;;;4970717;28;20051;-71
2021/08/15 02:43:54;;;;;;;10.15;2.55;;;15.50;99.90;;;;;;4972090;28;20525;-71
2021/08/15 02:46:21;;;;;;;9.68;3.95;;;15.50;99.90;;;;;;4971752;28;20043;-73
2021/08/15 02:48:48;;;;;;;11.02;2.30;;;15.50;99.90;;;;;;4973422;28;20193;-69
2021/08/15 02:51:15;;;;;;;8.77;3.03;;;15.50;99.90;;;;;;4974449;28;20046;-65
2021/08/15 02:53:42;;;;;;;17.13;3.20;;;15.40;99.90;;;;;;4976232;28;20097;-65
2021/08/15 02:56:08;;;;;;;4.15;2.17;;;15.40;99.90;;;;;;4975738;28;20058;-65
2021/08/15 02:58:35;;;;;;;9.68;3.17;;;15.40;99.90;;;;;;4976056;28;20046;-68
2021/08/15 03:01:02;;;;;;;8.73;2.80;;;15.40;99.90;;;;;;4975632;28;20051;-71
2021/08/15 03:03:29;;;;;;;10.40;3.00;;;15.40;99.90;;;;;;4974403;28;20069;-69
2021/08/15 03:05:56;;;;;;;15.07;3.25;;;15.40;99.90;;;;;;4975425;28;20046;-65
2021/08/15 03:08:23;;;;;;;9.40;3.00;;;15.40;99.90;;;;;;4975511;28;20054;-76
2021/08/15 03:10:50;;;;;;;11.77;3.22;;;15.40;99.90;;;;;;4974961;28;20383;-66
2021/08/15 03:13:17;;;;;;;17.92;2.90;;;15.30;99.90;;;;;;4973753;28;20078;-69
2021/08/15 03:15:44;;;;;;;10.27;2.60;;;15.30;99.90;;;;;;4975306;28;20043;-68
2021/08/15 03:18:16;;;;;;;7.40;2.83;;;15.20;99.90;;;;;;4974584;28;20046;-68
2021/08/15 03:20:46;;;;;;;5.78;2.60;;;15.20;99.90;;;;;;4974482;28;20054;-64
2021/08/15 03:23:13;;;;;;;8.65;3.30;;;15.20;99.90;;;;;;4974497;28;20050;-65
2021/08/15 03:25:40;;;;;;;7.38;2.78;;;15.10;99.90;;;;;;4973310;28;20130;-67
2021/08/15 03:28:07;;;;;;;12.60;2.88;;;15.10;99.90;;;;;;4974391;28;20043;-66
2021/08/15 03:30:35;;;;;;;12.55;3.13;;;15.10;99.90;;;;;;4974621;28;20077;-67
2021/08/15 03:33:02;;;;;;;12.43;3.47;;;15.10;99.90;;;;;;4974595;28;20082;-64
2021/08/15 03:35:29;;;;;;;7.57;4.32;;;15.20;99.90;;;;;;4973036;28;20117;-69
2021/08/15 03:37:55;;;;;;;5.45;2.45;;;15.10;99.90;;;;;;4974263;28;20046;-64
2021/08/15 03:40:22;;;;;;;9.80;2.78;;;15.10;99.90;;;;;;4974383;28;20151;-73
2021/08/15 03:42:49;;;;;;;11.52;3.60;;;15.20;99.90;;;;;;4974121;28;20125;-68
2021/08/15 03:45:16;;;;;;;6.55;2.35;;;15.20;99.90;;;;;;4972587;28;20086;-65
2021/08/15 03:47:43;;;;;;;9.77;2.75;;;15.10;99.90;;;;;;4973886;28;20073;-65
2021/08/15 03:50:10;;;;;;;12.85;2.67;;;15.20;99.90;;;;;;4974502;28;20078;-64
2021/08/15 03:52:41;;;;;;;11.57;2.63;;;15.20;99.90;;;;;;4974265;28;20441;-68
2021/08/15 03:55:10;;;;;;;;;;;15.20;99.90;;;;;;4974705;28;20078;-64
2021/08/15 03:57:38;;;;;;;10.57;3.53;;;15.20;99.90;;;;;;4972402;28;19922;-68
2021/08/15 04:00:07;;;;;;;14.15;3.03;;;15.30;99.90;;;;;;4973493;28;20074;-68
2021/08/15 04:02:34;;;;;;;10.93;2.90;;;15.30;99.90;;;;;;4973846;28;20351;-64
2021/08/15 04:05:03;;;;;;;14.38;3.53;;;15.30;99.90;;;;;;4973985;28;20174;-64
2021/08/15 04:07:30;;;;;;;9.23;3.97;;;15.30;99.90;;;;;;4972117;28;20414;-65
2021/08/15 04:09:56;;;;;;;8.82;2.55;;;15.30;99.90;;;;;;4973472;28;20473;-67
2021/08/15 04:12:23;;;;;;;3.95;2.20;;;15.30;99.90;;;;;;4973371;28;20042;-70
2021/08/15 04:14:50;;;;;;;16.48;3.47;;;15.40;99.90;;;;;;4973780;28;20530;-67
2021/08/15 04:17:17;;;;;;;13.25;3.30;;;15.40;99.90;;;;;;4972439;28;20055;-71
2021/08/15 04:19:44;;;;;;;10.38;3.45;;;15.30;99.90;;;;;;4973418;28;20448;-65
2021/08/15 04:22:12;;;;;;;8.98;2.47;;;15.30;99.90;;;;;;4973576;28;20051;-67
2021/08/15 04:24:39;;;;;;;6.15;2.13;;;15.30;99.90;;;;;;4973578;28;20157;-67
2021/08/15 04:27:06;;;;;;;9.93;3.58;;;15.30;99.90;;;;;;4973705;28;20071;-66
2021/08/15 04:29:38;;;;;;;7.63;2.58;;;15.30;99.90;;;;;;4972173;28;20138;-68
2021/08/15 04:32:07;;;;;;;11.75;3.78;;;15.30;99.90;;;;;;4973564;28;20051;-64
2021/08/15 04:34:34;;;;;;;9.23;2.50;;;15.40;99.90;;;;;;4973378;28;20082;-68
2021/08/15 04:37:03;;;;;;;8.95;2.65;;;15.40;99.90;;;;;;4973315;28;20077;-65
2021/08/15 04:39:30;;;;;;;8.70;3.50;;;15.40;99.90;;;;;;4971611;28;20477;-67
2021/08/15 04:41:57;;;;;;;11.07;2.53;;;15.40;99.90;;;;;;4973202;28;20081;-71
2021/08/15 04:44:24;;;;;;;9.00;2.65;;;15.40;99.90;;;;;;4973257;28;20058;-69
2021/08/15 04:46:51;;;;;;;10.60;2.65;;;15.40;99.90;;;;;;4973185;28;20495;-64
2021/08/15 04:49:18;;;;;;;14.50;4.53;;;15.40;99.90;;;;;;4971815;28;20065;-74
2021/08/15 04:51:45;;;;;;;10.35;2.75;;;15.40;99.90;;;;;;4972834;28;20054;-66
2021/08/15 04:54:12;;;;;;;13.02;3.30;;;15.40;99.90;;;;;;4973109;28;20102;-67
2021/08/15 04:56:39;;;;;;;9.02;2.53;;;15.40;99.90;;;;;;4973174;28;20608;-70
2021/08/15 04:59:06;;;;;;;5.20;2.75;;;15.40;99.90;;;;;;4973045;28;20081;-68
2021/08/15 05:01:33;;;;;;;8.80;2.78;;;15.40;99.90;;;;;;4971401;28;20071;-64
2021/08/15 05:04:04;;;;;;;8.60;2.80;;;15.40;99.90;;;;;;4972828;28;20053;-65
2021/08/15 05:06:33;;;;;;;7.85;2.30;;;15.40;99.90;;;;;;4972675;28;20482;-67
2021/08/15 05:08:59;;;;;;;7.43;2.88;;;15.50;99.90;;;;;;4972909;28;20054;-67
2021/08/15 05:11:26;;;;;;;7.53;2.72;;;15.50;99.90;;;;;;4970740;28;20070;-68
2021/08/15 05:13:53;;;;;;;10.45;3.25;;;15.50;99.90;;;;;;4972491;28;20077;-64
2021/08/15 05:16:20;;;;;;;6.60;3.53;;;15.50;99.90;;;;;;4972794;28;20133;-77
2021/08/15 05:18:47;;;;;;;6.82;2.30;;;15.60;99.90;;;;;;4972407;28;20050;-68
2021/08/15 05:21:15;;;;;;;9.18;3.17;;;15.60;99.90;;;;;;4970942;28;20152;-65
2021/08/15 05:23:42;;;;;;;7.68;3.70;;;15.60;99.90;;;;;;4987035;28;20050;-69
2021/08/15 05:26:09;;;;;;;9.65;2.45;;;15.60;99.90;;;;;;4972520;28;20055;-68
2021/08/15 05:28:36;;;;;;;16.67;3.80;;;15.70;99.90;;;;;;4972490;28;20059;-71
2021/08/15 05:31:03;;;;;;;11.75;4.38;;;15.80;99.90;;;;;;4972221;28;20138;-66
2021/08/15 05:33:30;;;;;;;7.63;2.90;;;15.80;99.90;;;;;;4970918;28;20482;-72
2021/08/15 05:35:57;;;;;;;7.10;2.70;;;15.90;99.90;;;;;;4972127;28;20071;-69
2021/08/15 05:38:23;;;;;;;7.93;3.08;;;15.80;99.90;;;;;;4972345;28;20105;-70
2021/08/15 05:40:50;;;;;;;12.18;4.65;;;15.80;99.90;;;;;;4972282;28;20046;-70
2021/08/15 05:43:17;;;;;;;7.10;3.13;;;15.80;99.90;;;;;;4970809;28;20046;-66
2021/08/15 05:45:44;;;;;;;9.13;2.55;;;15.80;99.90;;;;;;4971630;28;20111;-71
2021/08/15 05:48:11;;;;;;;6.35;2.83;;;15.80;99.90;;;;;;4972143;28;20050;-69
2021/08/15 05:50:38;;;;;;;13.60;3.25;;;15.80;99.90;;;;;;4972218;28;20173;-70
2021/08/15 05:53:05;;;;;;;11.02;2.22;;;15.80;99.90;;;;;;4972114;28;20074;-67
2021/08/15 05:55:32;;;;;;;5.78;1.90;;;15.90;99.90;;;;;;4970221;28;20115;-68
2021/08/15 05:57:58;;;;;;;9.52;2.88;;;15.90;99.90;;;;;;4971969;28;20093;-68
2021/08/15 06:00:25;;;;;;;7.78;3.88;;;15.80;99.90;;;;;;4971933;28;20440;-70
2021/08/15 06:02:52;;;;;;;13.70;3.58;;;15.80;99.90;;;;;;4971755;28;20113;-72
2021/08/15 06:05:20;;;;;;;11.18;2.83;;;15.80;99.90;;;;;;4970378;28;20069;-66
2021/08/15 06:07:47;;;;;;;11.55;3.58;;;15.90;99.90;;;;;;4971673;28;20051;-66
2021/08/15 06:10:14;;;;;;;10.45;3.03;;;15.90;99.90;;;;;;4971451;28;20054;-74
2021/08/15 06:12:41;;;;;;;10.50;5.07;;;16.00;99.90;;;;;;4971805;28;20105;-66
2021/08/15 06:15:13;;;;;;;9.82;3.08;;;16.00;99.90;;;;;;4971816;28;20059;-65
2021/08/15 06:17:41;;;;;;;8.02;2.33;;;16.10;99.90;;;;;;4970014;28;20448;-69
2021/08/15 06:20:10;;;;;;;13.77;4.70;;;16.00;99.90;;;;;;4971517;28;20070;-67
2021/08/15 06:22:45;;;;;;;4.78;2.10;;;16.10;99.90;;;;;;4971696;28;20090;-68
2021/08/15 06:25:14;;;;;;;8.70;3.05;;;16.00;99.90;;;;;;4971638;28;20047;-66
2021/08/15 06:27:45;;;;;;;10.05;2.55;;;16.10;99.90;;;;;;4970033;28;20049;-66
2021/08/15 06:30:15;;;;;;;5.68;2.42;;;16.10;99.90;;;;;;4971312;28;20552;-72
2021/08/15 06:32:53;;;;;;;11.13;2.67;;;16.10;99.90;;;;;;4971426;28;20070;-64
2021/08/15 06:35:23;;;;;;;10.52;2.45;;;16.20;99.90;;;;;;4969997;28;20066;-65
2021/08/15 06:37:52;;;;;;;11.02;2.80;;;16.20;99.90;;;;;;4971333;28;20069;-72
2021/08/15 06:40:25;;;;;;;7.72;1.70;;;16.30;99.90;;;;;;4971382;28;20485;-68
2021/08/15 06:42:53;;;;;;;5.07;1.95;;;16.30;99.90;;;;;;4971371;28;20117;-68
2021/08/15 06:45:20;;;;;;;14.00;2.90;;;16.20;99.90;;;;;;4969936;28;20141;-70
2021/08/15 06:47:47;;;;;;;14.25;2.83;;;16.30;99.90;;;;;;4970980;28;20047;-68
2021/08/15 06:50:14;;;;;;;11.40;2.28;;;16.30;99.90;;;;;;4971273;28;20046;-68
2021/08/15 06:52:41;;;;;;;6.85;2.35;;;16.40;99.90;;;;;;4971496;28;20054;-66
2021/08/15 06:55:09;;;;;;;12.65;3.05;;;16.40;99.90;;;;;;4971238;28;20062;-64
2021/08/15 06:57:36;;;;;;;7.10;2.90;;;16.30;99.90;;;;;;4969702;28;20462;-67
2021/08/15 07:00:05;;;;;;;10.27;3.25;;;16.30;99.90;;;;;;4971110;28;20063;-67
2021/08/15 07:02:37;;;;;;;5.45;1.85;;;16.20;99.90;;;;;;4970867;28;20122;-67
2021/08/15 07:05:09;;;;;;;9.07;3.25;;;16.20;99.90;;;;;;4971377;28;20082;-67
2021/08/15 07:07:36;;;;;;;9.63;2.67;;;16.20;99.90;;;;;;4969436;28;20051;-64
2021/08/15 07:10:04;;;;;;;9.07;2.63;;;16.30;99.90;;;;;;4970928;28;20517;-69
2021/08/15 07:12:31;;;;;;;8.70;2.53;;;16.30;99.90;;;;;;4971079;28;20047;-67
2021/08/15 07:14:58;;;;;;;8.43;3.95;;;16.30;99.90;;;;;;4970928;28;20130;-67
2021/08/15 07:17:25;;;;;;;8.73;3.10;;;16.30;99.90;;;;;;4969173;28;20074;-70
2021/08/15 07:19:52;;;;;;;5.50;2.60;;;16.40;99.90;;;;;;4970637;28;20045;-66
2021/08/15 07:22:19;;;;;;;11.68;2.92;;;16.50;99.90;;;;;;4970942;28;20070;-75
2021/08/15 07:24:46;;;;;;;7.07;3.28;;;16.50;99.90;;;;;;4971000;28;20435;-65
2021/08/15 07:27:13;;;;;;;6.63;2.80;;;16.40;99.90;;;;;;4970727;28;20410;-66
2021/08/15 07:29:40;;;;;;;5.40;2.88;;;16.40;99.90;;;;;;4969966;28;20081;-64
2021/08/15 07:32:07;;;;;;;7.93;2.70;;;16.40;99.90;;;;;;4970770;28;20486;-67
2021/08/15 07:34:34;;;;;;;9.73;2.53;;;16.40;99.90;;;;;;4971032;28;20319;-72
2021/08/15 07:37:01;;;;;;;3.90;2.25;;;16.40;99.90;;;;;;4973954;28;20062;-64
2021/08/15 07:39:28;;;;;;;8.38;3.00;;;16.40;99.90;;;;;;4973297;28;20121;-67
2021/08/15 07:41:55;;;;;;;7.80;3.08;;;16.50;99.90;;;;;;4974674;28;20043;-66
2021/08/15 07:44:23;;;;;;;13.07;3.47;;;16.50;99.90;;;;;;4974367;28;20051;-65
2021/08/15 07:46:50;;;;;;;12.50;5.00;;;16.50;99.90;;;;;;4974584;28;20078;-69
2021/08/15 07:49:17;;;;;;;10.63;3.00;;;16.60;99.90;;;;;;4972435;28;20074;-67
2021/08/15 07:51:44;;;;;;;8.80;1.98;;;16.60;99.90;;;;;;4973716;28;20051;-67
2021/08/15 07:54:11;;;;;;;7.35;2.47;;;16.60;99.90;;;;;;4973931;28;20393;-69
2021/08/15 07:56:38;;;;;;;6.43;3.33;;;16.70;99.90;;;;;;4973970;28;20472;-65
2021/08/15 07:59:05;;;;;;;5.88;2.15;;;16.70;99.90;;;;;;4974219;28;20138;-66
2021/08/15 08:01:32;;;;;;;6.63;2.28;;;16.80;99.90;;;;;;4972217;28;20054;-67
2021/08/15 08:04:00;;;;;;;7.57;2.40;;;16.90;99.90;;;;;;4973973;28;20047;-66
2021/08/15 08:06:27;;;;;;;9.18;3.72;;;17.10;99.90;;;;;;4973634;28;20165;-65
2021/08/15 08:08:54;;;;;;;5.90;2.20;;;17.30;99.90;;;;;;4973731;28;20144;-66
2021/08/15 08:11:21;;;;;;;5.65;2.90;;;17.30;99.90;;;;;;4972079;28;20058;-68
2021/08/15 08:13:50;;;;;;;6.00;1.90;;;17.30;99.90;;;;;;4973584;28;20458;-70
2021/08/15 08:16:17;;;;;;;3.73;2.93;;;17.30;99.90;;;;;;4973680;28;20047;-64
2021/08/15 08:18:44;;;;;;;9.35;2.63;;;17.20;99.90;;;;;;4973810;28;20047;-70
2021/08/15 08:21:11;;;;;;;5.25;2.30;;;17.20;99.90;;;;;;4973140;28;20102;-71
2021/08/15 08:23:38;;;;;;;7.85;2.90;;;17.20;99.90;;;;;;4972415;28;20133;-69
2021/08/15 08:26:05;;;;;;;7.38;2.60;;;17.20;99.90;;;;;;4973584;28;20118;-68
2021/08/15 08:28:32;;;;;;;6.68;1.73;;;17.20;99.90;;;;;;4973649;28;20105;-69
2021/08/15 08:30:58;;;;;;;3.08;2.03;;;17.30;99.90;;;;;;4973302;28;20113;-68
2021/08/15 08:33:27;;;;;;;10.35;2.53;;;17.30;99.90;;;;;;4971581;28;20043;-69
2021/08/15 08:35:54;;;;;;;6.57;2.22;;;17.40;99.90;;;;;;4973490;28;20499;-65
2021/08/15 08:38:21;;;;;;;9.13;3.72;;;17.40;99.90;;;;;;4973516;28;20441;-69
2021/08/15 08:40:48;;;;;;;9.20;3.58;;;17.50;99.90;;;;;;4973284;28;20058;-65
2021/08/15 08:43:20;;;;;;;6.20;2.13;;;17.50;99.90;;;;;;4971942;28;20422;-65
2021/08/15 08:45:47;;;;;;;9.48;2.75;;;17.50;99.90;;;;;;4973375;28;20101;-71
2021/08/15 08:48:16;;;;;;;7.47;2.25;;;17.50;99.90;;;;;;4973280;28;20465;-64
2021/08/15 08:50:43;;;;;;;12.60;2.83;;;17.60;99.90;;;;;;4973023;28;20055;-69
2021/08/15 08:53:11;;;;;;;5.72;2.67;;;17.50;99.90;;;;;;4973330;28;20427;-73
2021/08/15 08:55:38;;;;;;;7.20;2.55;;;17.50;99.90;;;;;;4971420;28;20063;-65
2021/08/15 08:58:07;;;;;;;8.73;3.22;;;17.40;99.90;;;;;;4972921;28;20129;-64
2021/08/15 09:00:34;;;;;;;5.03;3.20;;;17.50;99.90;;;;;;4973253;28;20382;-72
2021/08/15 09:03:01;;;;;;;9.27;3.78;;;17.60;99.90;;;;;;4972988;28;20130;-69
2021/08/15 09:05:37;;;;;;;7.22;3.15;;;17.60;99.90;;;;;;4971667;28;20113;-65
2021/08/15 09:08:05;;;;;;;8.02;3.65;;;17.60;99.90;;;;;;4973181;28;20121;-66
2021/08/15 09:10:39;;;;;;;6.85;2.95;;;17.60;99.90;;;;;;4973198;28;20079;-66
2021/08/15 09:13:08;;;;;;;8.98;2.55;;;17.60;99.90;;;;;;4973094;28;20054;-66
2021/08/15 09:15:36;;;;;;;4.15;1.77;;;17.60;99.90;;;;;;4971098;28;20065;-65
2021/08/15 09:18:03;;;;;;;8.80;2.70;;;17.60;99.90;;;;;;4973082;28;20090;-66
2021/08/15 09:20:44;;;;;;;4.95;2.78;;;17.70;99.90;;;;;;4972810;28;20055;-71
2021/08/15 09:23:26;;;;;;;6.43;3.50;;;17.80;99.90;;;;;;4972611;28;20106;-65
2021/08/15 09:26:13;;;;;;;6.65;1.95;;;18.00;99.90;;;;;;4971081;28;20043;-67
2021/08/15 09:28:40;;;;;;;7.35;2.72;;;18.20;99.90;;;;;;4972847;28;20047;-65
2021/08/15 09:31:24;;;;;;;12.80;2.42;;;18.30;99.90;;;;;;4972803;28;20055;-68
2021/08/15 09:33:59;;;;;;;8.13;1.60;;;18.40;99.90;;;;;;4971377;28;20043;-64
2021/08/15 09:36:32;;;;;;;8.07;2.40;;;18.40;99.90;;;;;;4972722;28;20467;-65
2021/08/15 09:39:03;;;;;;;7.65;2.33;;;18.40;99.90;;;;;;4972630;28;20047;-64
2021/08/15 09:41:33;;;;;;;7.85;2.05;;;18.30;99.90;;;;;;4971077;28;20046;-71
2021/08/15 09:44:19;;;;;;;4.30;1.95;;;18.10;99.90;;;;;;4972376;28;20046;-65
2021/08/15 09:47:01;;;;;;;5.45;2.20;;;18.00;99.90;;;;;;4972537;28;20113;-73
2021/08/15 09:49:42;;;;;;;14.25;3.58;;;17.70;99.90;;;;;;4970941;28;20050;-65
2021/08/15 09:52:14;;;;;;;6.20;1.85;;;17.50;99.90;;;;;;4972267;28;20071;-75
2021/08/15 09:54:59;;;;;;;10.02;2.35;;;17.40;99.90;;;;;;4972382;28;20076;-70
2021/08/15 09:57:32;;;;;;;9.60;2.78;;;17.50;99.90;;;;;;4970272;28;20151;-64
2021/08/15 09:59:59;;;;;;;8.63;2.75;;;17.80;99.90;;;;;;4972253;28;20553;-64
2021/08/15 10:02:27;;;;;;;8.32;2.83;;;18.00;99.90;;;;;;4971763;28;20426;-64
2021/08/15 10:04:57;;;;;;;5.78;3.45;;;18.10;99.90;;;;;;4972060;28;20042;-69
2021/08/15 10:07:27;;;;;;;5.28;3.13;;;18.20;99.90;;;;;;4970612;28;20065;-72
2021/08/15 10:09:54;;;;;;;8.20;2.25;;;18.30;99.90;;;;;;4971892;28;20072;-73
2021/08/15 10:12:21;;;;;;;6.47;2.63;;;18.40;99.90;;;;;;4971876;28;20083;-66
2021/08/15 10:14:48;;;;;;;4.80;1.90;;;18.50;99.90;;;;;;4971588;28;20050;-68
2021/08/15 10:17:16;;;;;;;5.95;2.70;;;18.50;99.90;;;;;;4970131;28;20055;-75
2021/08/15 10:19:53;;;;;;;14.25;4.28;;;18.50;99.90;;;;;;4971463;28;20425;-67
2021/08/15 10:22:23;;;;;;;8.48;2.00;;;18.40;99.90;;;;;;4971543;28;20047;-75
2021/08/15 10:24:52;;;;;;;3.78;1.73;;;18.50;99.90;;;;;;4971670;28;20375;-70
2021/08/15 10:27:41;;;;;;;8.10;2.17;;;18.60;99.90;;;;;;4970569;28;20381;-69
2021/08/15 10:30:17;;;;;;;8.88;3.42;;;18.50;99.90;;;;;;4971550;28;20057;-67
2021/08/15 10:32:56;;;;;;;3.67;2.03;;;18.70;99.90;;;;;;4971373;28;20047;-73
2021/08/15 10:35:30;;;;;;;4.53;1.40;;;18.80;99.90;;;;;;4970273;28;20050;-76
2021/08/15 10:38:08;;;;;;;5.80;2.45;;;18.80;99.90;;;;;;4971561;28;20047;-68
2021/08/15 10:40:41;;;;;;;4.40;2.40;;;19.00;99.90;;;;;;4971205;28;20065;-67
2021/08/15 10:43:09;;;;;;;9.48;2.10;;;19.00;99.90;;;;;;4971661;28;20446;-70
2021/08/15 10:45:37;;;;;;;6.30;2.75;;;19.20;99.90;;;;;;4970191;28;20493;-74
2021/08/15 10:48:04;;;;;;;4.35;1.67;;;19.20;99.90;;;;;;4971593;28;20043;-68
2021/08/15 10:50:40;;;;;;;6.10;1.98;;;19.20;99.90;;;;;;4971420;28;20055;-70
2021/08/15 10:53:26;;;;;;;3.67;1.10;;;19.30;99.90;;;;;;4971680;28;20039;-67
2021/08/15 10:56:02;;;;;;;7.03;1.80;;;19.30;99.90;;;;;;4969944;28;20441;-68
2021/08/15 10:58:37;;;;;;;3.47;1.60;;;19.40;99.90;;;;;;4971525;28;20146;-68
2021/08/15 11:01:09;;;;;;;7.43;1.45;;;19.50;99.90;;;;;;4971869;28;20074;-67
2021/08/15 11:03:47;;;;;;;5.25;1.40;;;19.60;99.90;;;;;;4970071;28;20049;-67
2021/08/15 11:06:36;;;;;;;5.22;2.03;;;19.60;99.90;;;;;;4971547;28;20043;-68
2021/08/15 11:09:08;;;;;;;3.97;1.20;;;19.60;99.90;;;;;;4971458;28;20113;-68
2021/08/15 11:11:41;;;;;;;2.78;0.93;;;19.70;99.90;;;;;;4972914;28;20058;-70
2021/08/15 11:14:24;;;;;;;3.75;1.33;;;19.70;99.90;;;;;;4975177;28;20445;-71
2021/08/15 11:16:56;;;;;;;5.40;1.35;;;19.80;99.90;;;;;;4975278;28;20154;-69
2021/08/15 11:19:24;;;;;;;2.50;1.13;;;19.70;99.90;;;;;;4973616;28;20126;-72
2021/08/15 11:22:06;;;;;;;6.93;2.17;;;19.60;99.90;;;;;;4974545;28;20137;-68
2021/08/15 11:24:44;;;;;;;7.20;2.47;;;19.70;99.90;;;;;;4974869;28;20504;-78
2021/08/15 11:27:19;;;;;;;3.10;1.33;;;19.80;99.90;;;;;;4975038;28;20047;-72
2021/08/15 11:29:47;;;;;;;2.95;1.48;;;19.90;99.90;;;;;;4973633;28;20544;-71
2021/08/15 11:32:17;;;;;;;5.90;2.30;;;19.80;99.90;;;;;;4975037;28;20154;-67
2021/08/15 11:34:53;;;;;;;1.65;0.88;;;19.80;99.90;;;;;;4974533;28;20378;-68
2021/08/15 11:37:23;;;;;;;4.97;2.08;;;19.80;99.90;;;;;;4973149;28;20059;-77
2021/08/15 11:39:50;;;;;;;7.25;1.77;;;19.90;99.90;;;;;;4974564;28;20396;-70
2021/08/15 11:42:21;;;;;;;4.20;1.38;;;20.00;99.90;;;;;;4974552;28;20051;-68
2021/08/15 11:44:57;;;;;;;5.22;1.15;;;20.00;99.90;;;;;;4974520;28;20070;-71
2021/08/15 11:47:28;;;;;;;4.15;1.55;;;20.10;99.90;;;;;;4973151;28;20129;-74
2021/08/15 11:49:58;;;;;;;5.00;1.60;;;20.10;99.90;;;;;;4974338;28;20104;-69
2021/08/15 11:52:37;;;;;;;9.70;2.42;;;20.10;99.90;;;;;;4974130;28;20070;-68
2021/08/15 11:55:09;;;;;;;3.67;1.15;;;20.10;99.90;;;;;;4974373;28;20105;-73
2021/08/15 11:57:52;;;;;;;2.53;1.17;;;20.00;99.90;;;;;;4972550;28;20528;-68
2021/08/15 12:00:33;;;;;;;1.50;1.40;;;20.00;99.90;;;;;;4974411;28;20456;-69
2021/08/15 12:03:04;;;;;;;7.85;2.30;;;20.10;99.90;;;;;;4973967;28;20059;-67
2021/08/15 12:05:34;;;;;;;4.28;2.35;;;20.00;99.90;;;;;;4972946;28;20467;-72
2021/08/15 12:08:06;;;;;;;6.82;1.88;;;20.00;99.90;;;;;;4973895;28;20382;-69
2021/08/15 12:11:02;;;;;;;4.78;1.00;;;20.00;99.90;;;;;;4988910;28;20445;-67
2021/08/15 12:13:38;;;;;;;6.78;1.30;;;20.20;99.90;;;;;;4969631;28;20098;-68
2021/08/15 12:16:04;;;;;;;5.95;1.17;;;20.10;99.90;;;;;;4973939;28;20094;-71
2021/08/15 12:18:34;;;;;;;3.80;1.10;;;20.10;99.90;;;;;;4974036;28;20074;-69
2021/08/15 12:21:23;;;;;;;3.03;1.45;;;20.20;99.90;;;;;;4973360;28;20258;-67
2021/08/15 12:24:13;;;;;;;4.53;2.63;;;20.10;99.90;;;;;;4972605;28;20058;-67
2021/08/15 12:26:45;;;;;;;4.97;1.40;;;20.20;99.90;;;;;;4973608;28;20396;-67
2021/08/15 12:29:29;;;;;;;3.33;1.00;;;20.10;99.90;;;;;;4973900;28;20055;-67
2021/08/15 12:32:14;;;;;;;1.77;0.93;;;20.20;99.90;;;;;;4972503;28;20562;-69
2021/08/15 12:34:53;;;;;;;4.65;1.58;;;20.20;99.90;;;;;;4973830;28;20042;-69
2021/08/15 12:37:22;;;;;;;3.97;1.90;;;20.30;99.90;;;;;;4972030;28;20125;-73
2021/08/15 12:40:01;;;;;;;4.82;0.93;;;20.40;99.90;;;;;;4973472;28;20117;-68
2021/08/15 12:42:29;;;;;;;6.50;1.40;;;20.50;99.90;;;;;;4973552;28;20043;-69
2021/08/15 12:44:58;;;;;;;1.88;1.63;;;20.70;99.90;;;;;;4973434;28;20478;-70
2021/08/15 12:47:28;;;;;;;6.57;1.47;;;20.70;99.90;;;;;;4971787;28;20081;-68
2021/08/15 12:50:13;;;;;;;3.63;1.67;;;20.80;99.90;;;;;;4973197;28;20039;-73
2021/08/15 12:52:48;;;;;;;3.38;1.02;;;20.70;99.90;;;;;;4973557;28;20046;-68
2021/08/15 12:55:18;;;;;;;2.92;0.70;;;20.70;99.90;;;;;;4971503;28;20043;-74